Latest Weather Observations for North Head

IDN60801

Issued at 11:33 pm EST Saturday 1 August 2015 (issued every 30 minutes, with the page automatically refreshed every 10 minutes)

About weather observations | Map of weather stations | Latest weather observations for NSW | Other Formats
Station Details ID: 066197 Name: NORTH HEAD Lat: -33.82 Lon: 151.30 Height: 90.0 m
Data from the previous 72 hours. | See also: Recent months for locations in New South Wales
Date/Time
EST
Temp
°C
App
Temp
°C
Dew
Point
Rel
Hum
%
Delta-T
°C
Wind Press
QNH
hPa
Press
MSL
hPa
Rain
since 9 am
mm
Dir
 
Spd
km/h
Gust
km/h
Spd
kts
Gust
kts
01/11:30pm - - - - - N 11 15 6 8 - - -
01/11:00pm - - - - - NNW 11 17 6 9 - - -
01/10:30pm - - - - - NNW 15 20 8 11 - - -
01/10:00pm - - - - - NNW 17 24 9 13 - - -
01/09:30pm - - - - - NNW 13 19 7 10 - - -
01/09:00pm - - - - - NNW 13 19 7 10 - - -
01/08:30pm - - - - - N 13 19 7 10 - - -
01/08:00pm - - - - - N 13 17 7 9 - - -
01/07:30pm - - - - - N 13 19 7 10 - - -
01/07:00pm - - - - - N 15 20 8 11 - - -
01/06:30pm - - - - - NNW 13 19 7 10 - - -
01/06:00pm - - - - - NNW 15 22 8 12 - - -
01/05:30pm - - - - - NNW 13 20 7 11 - - -
01/05:00pm - - - - - NNW 13 20 7 11 - - -
01/04:30pm - - - - - NNW 15 24 8 13 - - -
01/04:00pm - - - - - NW 19 35 10 19 - - -
01/03:30pm - - - - - NW 24 41 13 22 - - -
01/03:00pm - - - - - NNW 20 33 11 18 - - -
01/02:30pm - - - - - NW 24 39 13 21 - - -
01/02:06pm - - - - - WNW 32 50 17 27 - - -
01/02:00pm - - - - - WNW 33 50 18 27 - - -
01/01:31pm - - - - - WNW 35 57 19 31 - - -
01/01:30pm - - - - - WNW 35 54 19 29 - - -
01/01:21pm - - - - - WNW 28 46 15 25 - - -
01/01:00pm - - - - - WNW 24 37 13 20 - - -
01/12:48pm - - - - - WNW 28 44 15 24 - - -
01/12:30pm - - - - - WNW 17 26 9 14 - - -
01/12:00pm - - - - - NW 15 26 8 14 - - -
01/11:30am - - - - - NW 15 26 8 14 - - -
01/11:00am - - - - - NNW 11 19 6 10 - - -
01/10:30am - - - - - N 13 20 7 11 - - -
01/10:00am - - - - - N 11 19 6 10 - - -
01/09:30am - - - - - NNW 15 20 8 11 - - -
01/09:00am - - - - - NNW 17 28 9 15 - - -
01/08:30am - - - - - NNW 17 26 9 14 - - -
01/08:00am - - - - - NNW 17 26 9 14 - - -
01/07:30am - - - - - N 13 20 7 11 - - -
01/07:00am - - - - - N 11 17 6 9 - - -
01/06:30am - - - - - N 11 19 6 10 - - -
01/06:00am - - - - - N 15 20 8 11 - - -
01/05:30am - - - - - NNW 13 20 7 11 - - -
01/05:00am - - - - - NNW 17 26 9 14 - - -
01/04:30am - - - - - NNW 13 22 7 12 - - -
01/04:00am - - - - - NNW 17 28 9 15 - - -
01/03:30am - - - - - NNW 15 22 8 12 - - -
01/03:00am - - - - - NNW 13 20 7 11 - - -
01/02:30am - - - - - NNW 9 13 5 7 - - -
01/02:00am - - - - - NW 11 13 6 7 - - -
01/01:30am - - - - - NW 11 13 6 7 - - -
01/01:00am - - - - - WNW 11 15 6 8 - - -
01/12:30am - - - - - NW 11 17 6 9 - - -
01/12:00am - - - - - WNW 13 17 7 9 - - -
 
Date/Time
EST
Temp
°C
App
Temp
°C
Dew
Point
Rel
Hum
%
Delta-T
°C
Wind Press
QNH
hPa
Press
MSL
hPa
Rain
since 9 am
mm
Dir
 
Spd
km/h
Gust
km/h
Spd
kts
Gust
kts
31/11:30pm - - - - - WNW 9 13 5 7 - - -
31/11:00pm - - - - - N 11 15 6 8 - - -
31/10:30pm - - - - - N 13 20 7 11 - - -
31/10:00pm - - - - - N 11 17 6 9 - - -
31/09:30pm - - - - - N 11 15 6 8 - - -
31/09:00pm - - - - - N 13 17 7 9 - - -
31/08:30pm - - - - - NNE 13 19 7 10 - - -
31/08:00pm - - - - - NE 19 26 10 14 - - -
31/07:30pm - - - - - NE 15 24 8 13 - - -
31/07:00pm - - - - - NE 15 26 8 14 - - -
31/06:30pm - - - - - ENE 11 22 6 12 - - -
31/06:00pm - - - - - ENE 9 15 5 8 - - -
31/05:30pm - - - - - NE 9 11 5 6 - - -
31/05:00pm - - - - - NE 9 13 5 7 - - -
31/04:30pm - - - - - NE 7 9 4 5 - - -
31/04:00pm - - - - - W 4 6 2 3 - - -
31/03:30pm - - - - - WNW 6 9 3 5 - - -
31/03:00pm - - - - - W 9 15 5 8 - - -
31/02:30pm - - - - - WSW 7 13 4 7 - - -
31/02:00pm - - - - - W 15 24 8 13 - - -
31/01:30pm - - - - - WSW 15 24 8 13 - - -
31/01:00pm - - - - - WNW 13 20 7 11 - - -
31/12:30pm - - - - - W 15 24 8 13 - - -
31/12:00pm - - - - - W 19 26 10 14 - - -
31/11:30am - - - - - W 15 24 8 13 - - -
31/11:00am - - - - - W 13 24 7 13 - - -
31/10:30am - - - - - W 13 19 7 10 - - -
31/10:00am - - - - - WNW 13 19 7 10 - - -
31/09:30am - - - - - WNW 6 9 3 5 - - -
31/09:00am - - - - - NW 7 15 4 8 - - -
31/08:30am - - - - - WNW 19 24 10 13 - - -
31/08:00am - - - - - WNW 20 30 11 16 - - -
31/07:30am - - - - - WNW 19 24 10 13 - - -
31/07:00am - - - - - WNW 11 17 6 9 - - -
31/06:30am - - - - - NNW 4 6 2 3 - - -
31/06:00am - - - - - NW 2 4 1 2 - - -
31/05:30am - - - - - CALM 0 6 0 3 - - -
31/05:00am - - - - - WNW 6 17 3 9 - - -
31/04:30am - - - - - NW 9 15 5 8 - - -
31/04:00am - - - - - WNW 9 11 5 6 - - -
31/03:30am - - - - - NW 9 13 5 7 - - -
31/03:00am - - - - - NW 7 9 4 5 - - -
31/02:30am - - - - - WNW 6 7 3 4 - - -
31/02:00am - - - - - NW 4 7 2 4 - - -
31/01:30am - - - - - NNW 6 9 3 5 - - -
31/01:00am - - - - - NW 9 13 5 7 - - -
31/12:30am - - - - - NW 7 13 4 7 - - -
31/12:00am - - - - - NW 11 17 6 9 - - -
 
Date/Time
EST
Temp
°C
App
Temp
°C
Dew
Point
Rel
Hum
%
Delta-T
°C
Wind Press
QNH
hPa
Press
MSL
hPa
Rain
since 9 am
mm
Dir
 
Spd
km/h
Gust
km/h
Spd
kts
Gust
kts
30/11:30pm - - - - - NNW 13 19 7 10 - - -
30/11:00pm - - - - - NNW 13 22 7 12 - - -
30/10:30pm - - - - - NNW 7 15 4 8 - - -
30/10:00pm - - - - - NNW 13 20 7 11 - - -
30/09:30pm - - - - - NNW 13 22 7 12 - - -
30/09:00pm - - - - - NNW 15 22 8 12 - - -
30/08:30pm - - - - - NNW 15 26 8 14 - - -
30/08:00pm - - - - - NNW 17 28 9 15 - - -
30/07:30pm - - - - - NNW 15 24 8 13 - - -
30/07:00pm - - - - - NNW 17 24 9 13 - - -
30/06:30pm - - - - - NNW 17 26 9 14 - - -
30/06:00pm - - - - - NNW 19 32 10 17 - - -
30/05:30pm - - - - - NNW 11 19 6 10 - - -
30/05:00pm - - - - - NNW 13 20 7 11 - - -
30/04:30pm - - - - - NNW 13 20 7 11 - - -
30/04:00pm - - - - - NNW 11 22 6 12 - - -
30/03:30pm - - - - - NNW 13 20 7 11 - - -
30/03:00pm - - - - - NNW 17 26 9 14 - - -
30/02:30pm - - - - - NNW 15 22 8 12 - - -
30/02:00pm - - - - - NW 19 30 10 16 - - -
30/01:30pm - - - - - NNW 13 24 7 13 - - -
30/01:00pm - - - - - NW 15 28 8 15 - - -
30/12:30pm - - - - - NNW 19 30 10 16 - - -
30/12:00pm - - - - - WNW 17 28 9 15 - - -
30/11:30am - - - - - NW 13 20 7 11 - - -
30/11:00am - - - - - NW 17 24 9 13 - - -
30/10:30am - - - - - NNW 13 20 7 11 - - -
30/10:00am - - - - - NNW 13 24 7 13 - - -
30/09:30am - - - - - NNW 13 22 7 12 - - -
30/09:00am - - - - - NW 13 20 7 11 - - -
30/08:30am - - - - - NW 13 20 7 11 - - -
30/08:00am - - - - - NW 11 17 6 9 - - -
30/07:30am - - - - - NW 11 17 6 9 - - -
30/07:00am - - - - - NNW 11 15 6 8 - - -
30/06:30am - - - - - NW 13 17 7 9 - - -
30/06:00am - - - - - WNW 13 19 7 10 - - -
30/05:30am - - - - - WNW 13 17 7 9 - - -
30/05:00am - - - - - NW 11 17 6 9 - - -
30/04:30am - - - - - WNW 15 19 8 10 - - -
30/04:00am - - - - - WNW 11 15 6 8 - - -
30/03:30am - - - - - NNW 11 13 6 7 - - -
30/03:00am - - - - - NW 11 15 6 8 - - -
30/02:30am - - - - - NW 9 13 5 7 - - -
30/02:00am - - - - - WNW 11 13 6 7 - - -
30/01:30am - - - - - NW 7 11 4 6 - - -
30/01:00am - - - - - NNW 7 11 4 6 - - -
30/12:30am - - - - - NNW 9 13 5 7 - - -
30/12:00am - - - - - NNW 7 11 4 6 - - -

Other Formats:

Comma delimited format used in spreadsheet applications
http://www.bom.gov.au/fwo/IDN60801/IDN60801.95768.axf

JavaScript Object Notation format (JSON) in row-major order
http://www.bom.gov.au/fwo/IDN60801/IDN60801.95768.json